Aérodrome :







RETROUVEZ-NOUS SUR...

 
LOGIN :

S'inscrire | Disclaimer

   EN    FR    IT 

 









Légende :    VFR   VFR Marginal   IFR   IFR Intensif   IFR Très Intensif
Visi : 
Plafond : 
>= 8 km
>= 3000ft
5 à 8 km
1000 à 3000 ft
1500m à 5 km
500 à 1000 ft
800 à 1500m
200 à 500 ft
< 800m
< 200 ft
Symboles :   Orages  Brouillard  Fortes neiges  Fortes précipitations  Vent > 20 kt






- Altitude de l'aérodrome : 555 ft


KORE - Orange Municipal

DERNIER METAR :
  • 150301Z AUTO 21014G22KT 10SM FEW022 BKN027 11/07 A2914 RMK AO2 T01060067

METARs EXPIRÉS :
  • 150252Z AUTO 21014KT 10SM FEW018 SCT023 11/07 A2914 RMK AO2 SLP869 60000 T01060072 53008
  • 150223Z AUTO 22015G22KT 10SM FEW012 BKN018 BKN024 12/08 A2912 RMK AO2 T01170083
  • 150152Z AUTO 21011G24KT 10SM OVC012 13/10 A2911 RMK AO2 SLP859 T01280100
  • 150140Z AUTO 19012G19KT 9SM OVC012 12/11 A2910 RMK AO2 T01220106
  • 150052Z AUTO 19012G19KT 10SM OVC007 12/11 A2910 RMK AO2 RAB22E42 CIG 006V012 SLP857 P0000 T01220111
  • 150021Z AUTO 19016G24KT 6SM BR OVC009 13/11 A2911 RMK AO2 CIG 007V013 T01280111

TAF N/A



MET'MAP, la Météo Aéronautique d'un coup d'oeil ! - Copyright ORBIFLY Décembre 2007 - Disclaimer

ORBIFLY MET'MAP TEAM :

Programmation & Développement : Alexandra Zaïnal
Sur une idée originale de : Baudouin d'Aumeries
Assistance à la programmation : Marc-Olivier Méhu
Soutien technique & logistique : Manuel Goepfert

Contact : metmap@orbifly.com




SOURCES & CREDITS :

   NOAA